AirNav   Pilot Hours Calculator
 
 1093 users online  

24VA Cherrystone Airport
Cheriton, Virginia, USA

GOING TO CHERITON?


FAA INFORMATION EFFECTIVE 31 DECEMBER 2020

Location

FAA Identifier: 24VA
Lat/Long: 37-17-17.4960N 075-59-58.7590W
37-17.291600N 075-59.979317W
37.2881933,-75.9996553
(estimated)
Elevation: 14 ft. / 4.3 m (surveyed)
Variation: 09W (1985)
From city: 1 mile W of CHERITON, VA
Time zone: UTC -5 (UTC -4 during Daylight Saving Time)
Zip code: 23310

Airport Operations

Airport use: Private use. Permission required prior to landing
Activation date: 10/1984
Control tower: no
ARTCC: WASHINGTON CENTER
FSS: LEESBURG FLIGHT SERVICE STATION
Attendance: UNATNDD
Wind indicator: yes
Segmented circle: no

Nearby radio navigation aids

VOR radial/distance  VOR name  Freq  Var
CCVr192/3.6CAPE CHARLES VORTAC112.2010W
ORFr029/25.6NORFOLK VORTAC116.9007W
HCMr113/35.3HARCUM VORTAC108.8007W

Airport Services

Runway Information

Runway 9/27

Dimensions: 2000 x 75 ft. / 610 x 23 m
Surface: turf
RUNWAY 9  RUNWAY 27
Traffic pattern: rightleft
Obstructions: nonepline, 500 ft. from runway

Airport Ownership and Management from official FAA records

Ownership: Privately-owned
Owner: GRANVILLE F. HOGG
PO BOX 117
CHERITON, VA 23316
Phone 757-630-2856
Manager: GRANVILLE F. HOGG
PO BOX 117
CHERITON, VA 23316
Phone 757-630-2856

Airport Operational Statistics

Aircraft operations: 6/year
100% local general aviation

Additional Remarks

FOR CD CTC NORFOLK APCH AT 757-464-0757.

Instrument Procedures

There are no published instrument procedures at 24VA.

Some nearby airports with instrument procedures:

KLFI - Langley Air Force Base (21 nm SW)
KMFV - Accomack County Airport (24 nm NE)
KNGU - Norfolk Naval Station (Chambers Field) (25 nm SW)
KPHF - Newport News/Williamsburg International Airport (25 nm W)
KORF - Norfolk International Airport (26 nm S)
 
Loc | Ops | Rwys | IFR | FBO | Links
Com | Nav | Svcs | Stats | Notes
Area around 24VA (Cherrystone Airport)
 
Road maps at: MapQuest Bing Google
 
Aerial photo
WARNING: Photo may not be current or correct
Aerial photo of 24VA (Cherrystone Airport)
Photo by Jens Reinke
Photo taken 05-May-2007

Do you have a better or more recent aerial photo of Cherrystone Airport that you would like to share? If so, please send us your photo.

 
Sectional chart

 
Airport distance calculator
Flying to Cherrystone Airport? Find the distance to fly.

From to 24VA

Sunrise and sunset
Times for 22-Jan-2021
 Local
(UTC-5)
 Zulu
(UTC)
Morning civil twilight06:4711:47
Sunrise07:1512:15
Sunset17:1622:16
Evening civil twilight17:4422:44

Current date and time
Zulu (UTC)  23-Jan-2021 00:42:25
Local (UTC-5)  22-Jan-2021 19:42:25
 
METAR
KMFV 
23nm NE 
222355Z AUTO 02004KT 10SM CLR 06/M03 A2991 RMK AO2 T00551028 10116 20051
KORF 
25nm S 
222351Z 00000KT 10SM CLR 09/M02 A2989 RMK AO2 SLP121 T00941022 10139 20094 53018
KPHF 
26nm W 
222354Z AUTO 26003KT 10SM CLR 04/M03 A2989 RMK AO2 RAB39E48 SLP123 P0000 60000 T00441028 10128 20044 53020
KNGU 
26nm SW 
222359Z 00000KT 10SM CLR 07/M01 A2991 RMK AO2 SLP127 T00671011 10133 20067 53019 $
KNTU 
28nm S 
222356Z 31005KT 10SM CLR 08/M04 A2989 RMK AO2 SLP123 T00831039 10150 20083 53019
KW75 
28nm NW 
230015Z AUTO 00000KT 10SM CLR 04/M02 A2992 RMK AO1 T00391019
KJGG 
34nm W 
230015Z AUTO 00000KT 10SM CLR 06/M02 A2990 RMK AO1
KNFE 
36nm S 
222356Z AUTO 00000KT 10SM CLR 03/M03 A2990 RMK AO2 SLP126 T00331028 10133 20033 53019
KPVG 
37nm SW 
222356Z AUTO 00000KT 10SM CLR 01/M02 A2991 RMK AO2 SLP130 6//// T00111022 10133 20011 53019 FZRANO PNO $
KFYJ 
39nm W 
230015Z AUTO 04004KT 10SM CLR 06/M04 A2992 RMK AO1 T00641037
TAF
KORF 
25nm S 
221930Z 2220/2318 29014G22KT P6SM SKC FM222200 29010KT P6SM SKC FM230000 33006KT P6SM SKC FM231500 33014G22KT P6SM SKC
KPHF 
26nm W 
221727Z 2218/2318 27014G24KT P6SM FEW200 FM222200 30012KT P6SM SKC FM230000 34006KT P6SM SKC FM231500 33012G19KT P6SM SKC
KNGU 
26nm SW 
TAF 2223/2323 31009KT 9999 SKC QNH2986INS FM231200 34015G25KT 9999 FEW030 QNH3000INS T01/2311Z T07/2319Z FN20004
NOTAMs
Click for the latest NOTAMs
NOTAMs are issued by the DoD/FAA and will open in a separate window not controlled by AirNav.

 

 
 

Would you like to see your business listed on this page?

 If your business provides an interesting product or service to pilots, flight crews, aircraft, or users of the Cherrystone Airport, you should consider listing it here.  To start the listing process, click on the button below
 
Add a business
 

Other Pages about Cherrystone Airport

Update a link
 
Copyright © AirNav, LLC. All rights reserved. Privacy Policy  Contact